createdAt,value
2019-02-02T00:00:50.080Z,95548.81
2019-02-02T00:04:55.822Z,95539.30
2019-02-02T00:09:02.638Z,95540.16
2019-02-02T00:13:09.393Z,95549.27
2019-02-02T00:17:15.171Z,95555.52
2019-02-02T00:21:21.006Z,95558.87
2019-02-02T00:25:26.757Z,95555.75
2019-02-02T00:29:32.635Z,95552.29
2019-02-02T00:33:38.347Z,95560.08
2019-02-02T00:37:44.052Z,95562.55
2019-02-02T00:41:49.803Z,95575.27
2019-02-02T00:45:55.470Z,95568.08
2019-02-02T00:50:20.639Z,95572.50
2019-02-02T00:54:26.328Z,95568.72
2019-02-02T00:58:32.145Z,95566.59
2019-02-02T01:02:38.069Z,95551.70
2019-02-02T01:06:43.888Z,95550.96
2019-02-02T01:10:49.730Z,95561.28
2019-02-02T01:14:55.690Z,95568.65
2019-02-02T01:19:01.385Z,95589.56
2019-02-02T01:23:07.593Z,95584.61
2019-02-02T01:27:13.462Z,95598.05
2019-02-02T01:31:19.211Z,95605.97
2019-02-02T01:35:24.965Z,95592.20
2019-02-02T01:39:30.656Z,95599.69
2019-02-02T01:43:36.347Z,95602.83
2019-02-02T01:47:42.347Z,95602.83
2019-02-02T01:51:48.012Z,95613.50
2019-02-02T01:55:53.752Z,95604.62
2019-02-02T01:59:59.432Z,95597.97
2019-02-02T02:04:05.255Z,95595.13
2019-02-02T02:08:11.091Z,95588.68
2019-02-02T02:12:16.761Z,95581.45
2019-02-02T02:16:22.627Z,95592.69
2019-02-02T02:20:28.415Z,95598.52
2019-02-02T02:24:34.120Z,95595.25
2019-02-02T02:28:39.813Z,95573.05
2019-02-02T02:32:45.642Z,95575.17
2019-02-02T02:36:51.311Z,95588.55
2019-02-02T02:40:58.202Z,95598.24
2019-02-02T02:45:04.914Z,95593.75
2019-02-02T02:49:10.596Z,95587.72
2019-02-02T02:53:16.287Z,95595.03
2019-02-02T02:57:21.958Z,95591.55
2019-02-02T03:01:27.651Z,95606.41
2019-02-02T03:05:33.816Z,95612.58
2019-02-02T03:09:39.510Z,95619.30
2019-02-02T03:13:45.188Z,95607.89
2019-02-02T03:17:52.177Z,95606.58
2019-02-02T03:21:59.042Z,95621.16
2019-02-02T03:26:04.931Z,95628.05
2019-02-02T03:30:17.547Z,95626.36
2019-02-02T03:34:23.286Z,95620.38
2019-02-02T03:38:28.961Z,95618.56
2019-02-02T03:42:34.696Z,95629.22
2019-02-02T04:04:16.932Z,95638.89
2019-02-02T04:14:15.937Z,95691.38
2019-02-02T04:18:21.611Z,95690.16
2019-02-02T04:23:16.064Z,95686.69
2019-02-02T04:28:16.269Z,95702.47
2019-02-02T04:43:16.287Z,95696.78
2019-02-02T04:48:18.655Z,95725.41
2019-02-02T04:53:18.041Z,95684.17
2019-02-02T04:58:17.659Z,95664.81
2019-02-02T05:02:23.349Z,95655.39
2019-02-02T05:07:17.022Z,95643.09
2019-02-02T05:12:17.149Z,95662.88
2019-02-02T05:21:19.565Z,95732.91
2019-02-02T05:26:15.768Z,95751.34
2019-02-02T05:31:15.482Z,95734.70
2019-02-02T05:35:21.327Z,95732.30
2019-02-02T05:41:15.142Z,95744.59
2019-02-02T05:46:14.808Z,95725.09
2019-02-02T05:51:15.790Z,95704.56
2019-02-02T06:01:17.776Z,95734.41
2019-02-02T06:06:17.952Z,95751.05
2019-02-02T06:15:20.314Z,95756.45
2019-02-02T06:19:43.755Z,95776.08
2019-02-02T06:24:19.256Z,95778.34
2019-02-02T06:29:19.581Z,95785.23
2019-02-02T06:43:15.606Z,95817.02
2019-02-02T06:47:21.288Z,95823.48
2019-02-02T06:51:27.042Z,95828.70
2019-02-02T06:55:32.741Z,95831.86
2019-02-02T06:59:38.422Z,95829.92
2019-02-02T07:03:44.120Z,95836.80
2019-02-02T07:07:49.787Z,95841.45
2019-02-02T07:11:55.487Z,95843.70
2019-02-02T07:16:01.192Z,95837.57
2019-02-02T07:20:11.716Z,95858.58
2019-02-02T07:24:17.402Z,95865.92
2019-02-02T07:28:23.162Z,95856.61
2019-02-02T07:33:02.495Z,95874.13
2019-02-02T07:37:08.235Z,95882.38
2019-02-02T07:41:13.927Z,95886.59
2019-02-02T07:45:32.740Z,95890.75
2019-02-02T07:49:38.416Z,95901.55
2019-02-02T07:53:44.099Z,95904.11
2019-02-02T07:57:50.020Z,95912.97
2019-02-02T08:01:55.767Z,95916.41
2019-02-02T08:06:01.454Z,95921.36
2019-02-02T08:10:11.699Z,95929.77
2019-02-02T08:14:17.393Z,95919.86
2019-02-02T08:18:23.135Z,95931.12
2019-02-02T08:22:28.839Z,95951.70
2019-02-02T08:26:34.608Z,95958.20
2019-02-02T08:30:51.570Z,95978.92
2019-02-02T08:34:48.039Z,95987.04
2019-02-02T08:38:53.783Z,95987.80
2019-02-02T08:42:59.492Z,95990.51
2019-02-02T08:47:05.323Z,95999.98
2019-02-02T08:51:11.020Z,96012.30
2019-02-02T08:55:16.781Z,96009.30
2019-02-02T08:59:22.454Z,96005.84
2019-02-02T09:03:28.256Z,96011.69
2019-02-02T09:07:33.990Z,96017.13
2019-02-02T09:11:39.692Z,96019.68
2019-02-02T09:15:45.383Z,96028.80
2019-02-02T09:19:51.092Z,96030.52
2019-02-02T09:23:56.780Z,96037.33
2019-02-02T09:28:02.489Z,96030.48
2019-02-02T09:32:08.179Z,96024.59
2019-02-02T09:36:16.796Z,96036.59
2019-02-02T09:40:21.877Z,96037.78
2019-02-02T09:44:27.557Z,96042.70
2019-02-02T09:48:33.272Z,96045.48
2019-02-02T09:52:38.971Z,96045.41
2019-02-02T09:56:44.671Z,96041.58
2019-02-02T10:00:50.371Z,96052.51
2019-02-02T10:04:56.075Z,96052.33
2019-02-02T10:09:01.764Z,96059.78
2019-02-02T10:13:09.216Z,96072.41
2019-02-02T10:17:15.060Z,96069.87
2019-02-02T10:21:20.835Z,96080.52
2019-02-02T10:25:31.766Z,96079.23
2019-02-02T10:29:37.477Z,96085.37
2019-02-02T10:33:43.218Z,96084.70
2019-02-02T10:37:48.952Z,96096.93
2019-02-02T10:41:54.676Z,96102.80
2019-02-02T10:46:00.525Z,96102.61
2019-02-02T10:50:12.359Z,96115.78
2019-02-02T10:54:18.052Z,96119.42
2019-02-02T10:58:23.841Z,96116.20
2019-02-02T11:02:29.619Z,96118.30
2019-02-02T11:06:35.452Z,96120.13
2019-02-02T11:10:41.279Z,96129.49
2019-02-02T11:14:47.196Z,96134.77
2019-02-02T11:18:53.001Z,96137.12
2019-02-02T11:22:58.935Z,96132.09
2019-02-02T11:27:04.937Z,96127.59
2019-02-02T11:31:10.708Z,96124.00
2019-02-02T11:35:21.853Z,96125.50
2019-02-02T11:39:27.538Z,96117.68
2019-02-02T11:43:33.245Z,96127.44
2019-02-02T11:47:39.017Z,96138.42
2019-02-02T11:51:44.778Z,96138.95
2019-02-02T11:55:50.676Z,96136.13
2019-02-02T11:59:56.339Z,96140.33
2019-02-02T12:04:02.036Z,96133.16
2019-02-02T12:08:07.891Z,96126.80
2019-02-02T12:12:13.588Z,96127.94
2019-02-02T12:21:19.232Z,96124.69
2019-02-02T12:26:18.831Z,96123.66
2019-02-02T12:30:33.551Z,96146.95
2019-02-02T12:35:19.485Z,96143.09
2019-02-02T12:39:25.181Z,96140.58
2019-02-02T12:44:18.681Z,96149.70
2019-02-02T12:48:24.510Z,96154.70
2019-02-02T12:52:31.901Z,96157.81
2019-02-02T12:56:37.590Z,96161.80
2019-02-02T13:00:44.435Z,96160.93
2019-02-02T13:04:50.432Z,96172.91
2019-02-02T13:08:56.138Z,96181.02
2019-02-02T13:13:01.840Z,96177.88
2019-02-02T13:17:07.716Z,96185.69
2019-02-02T13:21:13.423Z,96182.31
2019-02-02T13:25:23.147Z,96182.86
2019-02-02T13:29:28.850Z,96179.64
2019-02-02T13:33:34.551Z,96182.52
2019-02-02T13:37:40.389Z,96181.73
2019-02-02T13:41:46.069Z,96192.08
2019-02-02T13:45:51.756Z,96202.73
2019-02-02T13:49:57.454Z,96221.11
2019-02-02T13:54:03.151Z,96220.87
2019-02-02T13:58:08.914Z,96227.05
2019-02-02T14:02:17.397Z,96245.45
2019-02-02T14:06:22.124Z,96245.65
2019-02-02T14:10:33.924Z,96251.55
2019-02-02T14:14:39.628Z,96265.87
2019-02-02T14:18:45.341Z,96267.72
2019-02-02T14:22:51.265Z,96273.16
2019-02-02T14:26:57.002Z,96279.97
2019-02-02T14:31:02.680Z,96295.00
2019-02-02T14:35:13.085Z,96305.84
2019-02-02T14:39:18.773Z,96319.34
2019-02-02T14:43:24.476Z,96322.77
2019-02-02T14:47:30.169Z,96324.92
2019-02-02T14:51:35.845Z,96337.80
2019-02-02T14:55:45.909Z,96345.39
2019-02-02T14:59:50.806Z,96343.61
2019-02-02T15:03:56.750Z,96339.53
2019-02-02T15:08:02.450Z,96354.62
2019-02-02T15:12:08.130Z,96355.55
2019-02-02T15:16:13.843Z,96363.02
2019-02-02T15:20:34.931Z,96384.53
2019-02-02T15:24:40.612Z,96390.72
2019-02-02T15:28:46.351Z,96392.55
2019-02-02T15:32:52.196Z,96403.63
2019-02-02T15:36:57.900Z,96405.77
2019-02-02T15:41:03.757Z,96395.57
2019-02-02T15:45:14.254Z,96399.50
2019-02-02T15:49:20.052Z,96404.77
2019-02-02T15:53:25.732Z,96401.44
2019-02-02T15:57:31.432Z,96403.41
2019-02-02T16:01:37.750Z,96398.94
2019-02-02T16:05:43.481Z,96412.05
2019-02-02T16:09:49.176Z,96406.16
2019-02-02T16:13:54.949Z,96408.14
2019-02-02T16:18:00.685Z,96413.30
2019-02-02T16:22:06.390Z,96413.47
2019-02-02T16:26:12.161Z,96411.98
2019-02-02T16:30:22.021Z,96418.17
2019-02-02T16:45:22.098Z,96442.74
2019-02-02T16:54:18.125Z,96450.02
2019-02-02T16:59:18.243Z,96458.97
2019-02-02T17:03:23.944Z,96464.69
2019-02-02T17:33:17.997Z,96491.35
2019-02-02T17:47:18.736Z,96508.63
2019-02-02T18:03:00.541Z,96522.70
2019-02-02T18:12:19.975Z,96541.03
2019-02-02T18:17:17.489Z,96553.84
2019-02-02T18:21:23.297Z,96569.52
2019-02-02T18:26:17.220Z,96582.81
2019-02-02T18:40:25.976Z,96605.06
2019-02-02T18:44:31.641Z,96610.05
2019-02-02T18:48:37.330Z,96628.62
2019-02-02T18:52:43.444Z,96634.05
2019-02-02T18:56:49.203Z,96645.80
2019-02-02T19:00:54.938Z,96662.84
2019-02-02T19:05:04.060Z,96665.73
2019-02-02T19:09:09.196Z,96675.54
2019-02-02T19:17:44.175Z,96679.00
2019-02-02T19:21:49.868Z,96685.33
2019-02-02T19:25:55.555Z,96689.11
2019-02-02T19:30:01.237Z,96693.64
2019-02-02T19:34:06.938Z,96693.66
2019-02-02T19:38:13.914Z,96701.34
2019-02-02T19:42:19.622Z,96713.84
2019-02-02T19:46:25.325Z,96719.59
2019-02-02T19:50:31.159Z,96723.19
2019-02-02T19:54:36.839Z,96731.63
2019-02-02T19:58:42.640Z,96744.16
2019-02-02T20:02:49.359Z,96745.51
2019-02-02T20:06:56.093Z,96750.79
2019-02-02T20:11:02.846Z,96761.03
2019-02-02T20:15:15.080Z,96773.67
2019-02-02T20:19:20.778Z,96792.14
2019-02-02T20:23:26.486Z,96803.46
2019-02-02T20:27:32.178Z,96810.70
2019-02-02T20:31:37.886Z,96818.75
2019-02-02T20:35:43.533Z,96819.31
2019-02-02T20:39:49.234Z,96827.97
2019-02-02T20:43:54.926Z,96824.27
2019-02-02T20:48:00.749Z,96823.06
2019-02-02T20:52:18.157Z,96826.46
2019-02-02T21:02:19.303Z,96825.94
2019-02-02T21:07:15.886Z,96823.33
2019-02-02T21:11:21.576Z,96817.80
2019-02-02T21:16:17.933Z,96826.36
2019-02-02T21:21:16.046Z,96819.92
2019-02-02T21:25:21.913Z,96819.21
2019-02-02T21:30:15.434Z,96816.38
2019-02-02T21:34:21.192Z,96824.42
2019-02-02T21:38:28.133Z,96831.06
2019-02-02T21:43:18.642Z,96834.52
2019-02-02T21:47:24.334Z,96843.09
2019-02-02T21:52:18.207Z,96845.33
2019-02-02T21:56:23.959Z,96847.14
2019-02-02T22:01:24.263Z,96849.81
2019-02-02T22:05:25.280Z,96849.40
2019-02-02T22:10:18.930Z,96848.97
2019-02-02T22:14:24.624Z,96846.86
2019-02-02T22:19:17.683Z,96849.40
2019-02-02T22:23:23.389Z,96855.00
2019-02-02T22:27:29.094Z,96859.22
2019-02-02T22:31:35.064Z,96868.98
2019-02-02T22:36:27.090Z,96880.53
2019-02-02T22:40:28.923Z,96883.56
2019-02-02T22:45:17.578Z,96894.27
2019-02-02T22:49:23.275Z,96898.56
2019-02-02T22:53:28.995Z,96912.70
2019-02-02T22:57:34.699Z,96909.99
2019-02-02T23:01:40.683Z,96916.64
2019-02-02T23:06:17.754Z,96925.98
2019-02-02T23:10:50.117Z,96930.32
2019-02-02T23:15:49.199Z,96936.58
2019-02-02T23:19:55.853Z,96950.47
2019-02-02T23:24:01.668Z,96958.80
2019-02-02T23:28:07.355Z,96959.91
2019-02-02T23:32:13.113Z,96965.81
2019-02-02T23:36:18.893Z,96952.25
2019-02-02T23:40:24.595Z,96975.42
2019-02-02T23:44:30.295Z,96974.29
2019-02-02T23:48:35.996Z,96970.95
2019-02-02T23:52:41.690Z,96980.29
2019-02-02T23:56:47.383Z,96979.83
